Time;durP1;ratioP1;P1;durP2;ratioP2;P2;SDS_P1;SDS_P2;PMS_P1;PMS_P2;Temp;Humidity;BMP_temperature;BMP_pressure;BME280_temperature;BME280_humidity;BME280_pressure;Samples;Min_cycle;Max_cycle;Signal;HPM_P1;HPM_P2
2022/02/22 00:01:39;;;;;;;28.35;7.38;;;;;;;5.64;73.09;99707.97;5075931;28;20032;-68
2022/02/22 00:04:04;;;;;;;23.02;6.13;;;;;;;5.62;73.08;99708.91;5068942;28;20036;-68
2022/02/22 00:06:30;;;;;;;22.13;7.57;;;;;;;5.59;73.25;99712.47;5082199;28;20074;-67
2022/02/22 00:08:55;;;;;;;23.90;7.22;;;;;;;5.57;73.17;99703.81;5075409;28;20047;-68
2022/02/22 00:11:22;;;;;;;34.00;6.50;;;;;;;5.58;73.07;99706.38;5082012;28;20032;-68
2022/02/22 00:13:48;;;;;;;26.08;6.85;;;;;;;5.57;73.13;99703.81;5074584;28;20060;-68
2022/02/22 00:16:13;;;;;;;20.48;5.93;;;;;;;5.58;73.09;99705.53;5081891;28;20055;-67
2022/02/22 00:18:39;;;;;;;33.95;7.05;;;;;;;5.54;73.32;99709.16;5077949;28;20036;-68
2022/02/22 00:21:04;;;;;;;20.77;6.50;;;;;;;5.53;73.87;99708.28;5069361;28;20400;-68
2022/02/22 00:23:30;;;;;;;32.05;7.88;;;;;;;5.52;73.55;99721.41;5071183;28;20040;-68
2022/02/22 00:25:55;;;;;;;28.15;6.75;;;;;;;5.51;74.14;99725.78;5079102;28;20038;-70
2022/02/22 00:28:20;;;;;;;36.35;7.38;;;;;;;5.49;73.90;99730.19;5102805;28;20858;-69
2022/02/22 00:30:49;;;;;;;27.45;7.03;;;;;;;5.51;73.97;99736.25;5102720;28;20442;-69
2022/02/22 00:33:16;;;;;;;32.30;7.85;;;;;;;5.54;74.38;99732.69;5102519;28;20036;-69
2022/02/22 00:35:41;;;;;;;27.45;6.68;;;;;;;5.55;74.58;99742.22;5102608;28;20027;-69
2022/02/22 00:38:07;;;;;;;21.75;7.38;;;;;;;5.59;74.57;99741.25;5102852;28;20061;-69
2022/02/22 00:40:33;;;;;;;24.52;7.25;;;;;;;5.61;74.46;99757.72;5088457;28;20042;-69
2022/02/22 00:42:58;;;;;;;22.08;6.05;;;;;;;5.60;74.98;99758.63;5079555;28;20036;-68
2022/02/22 00:45:24;;;;;;;31.73;7.18;;;;;;;5.62;75.12;99754.22;5075073;28;20042;-69
2022/02/22 00:47:49;;;;;;;35.58;8.10;;;;;;;5.62;74.91;99766.44;5102121;28;20040;-69
2022/02/22 00:50:15;;;;;;;22.13;6.93;;;;;;;5.65;75.02;99763.72;5100371;28;20417;-69
2022/02/22 00:52:40;;;;;;;28.13;8.55;;;;;;;5.66;75.18;99763.69;5081240;28;20097;-68
2022/02/22 00:55:06;;;;;;;35.90;8.93;;;;;;;5.69;75.07;99767.97;5080050;28;20043;-69
2022/02/22 00:57:32;;;;;;;38.38;8.73;;;;;;;5.69;75.37;99768.84;5080144;28;20032;-68
2022/02/22 00:59:57;;;;;;;27.58;6.72;;;;;;;5.67;75.39;99775.88;5057586;28;20039;-68
2022/02/22 01:02:22;;;;;;;30.10;7.95;;;;;;;5.62;75.78;99767.28;5059977;28;20041;-69
2022/02/22 01:04:48;;;;;;;35.65;8.82;;;;;;;5.62;75.43;99777.75;5059361;28;20040;-68
2022/02/22 01:07:16;;;;;;;30.13;8.55;;;;;;;5.87;76.92;99779.66;5075070;28;20032;-63
2022/02/22 01:09:45;;;;;;;30.38;8.20;;;;;;;6.14;73.96;99784.06;5086356;28;20089;-68
2022/02/22 01:12:12;;;;;;;35.53;8.23;;;;;;;6.02;73.73;99785.28;5068846;28;20108;-68
2022/02/22 01:14:37;;;;;;;28.17;8.27;;;;;;;5.91;74.59;99795.22;5079813;28;20067;-68
2022/02/22 01:17:03;;;;;;;23.90;8.52;;;;;;;5.86;75.08;99788.38;5085531;28;20056;-68
2022/02/22 01:19:29;;;;;;;37.85;8.70;;;;;;;5.79;75.31;99785.97;5086617;28;20408;-68
2022/02/22 01:21:54;;;;;;;27.20;8.77;;;;;;;5.74;75.67;99795.72;5087038;28;20481;-69
2022/02/22 01:24:19;;;;;;;33.83;9.10;;;;;;;5.74;76.01;99800.94;5069445;28;20032;-68
2022/02/22 01:26:45;;;;;;;37.75;7.60;;;;;;;5.69;75.73;99796.75;5086306;28;20032;-68
2022/02/22 01:29:10;;;;;;;33.60;10.60;;;;;;;5.68;76.05;99800.25;5086446;28;20047;-68
2022/02/22 01:31:36;;;;;;;36.97;10.35;;;;;;;5.67;76.08;99798.56;5086751;28;20558;-68
2022/02/22 01:34:01;;;;;;;35.00;9.80;;;;;;;5.62;76.04;99814.38;5086893;28;20508;-68
2022/02/22 01:36:27;;;;;;;29.45;8.23;;;;;;;5.59;76.51;99814.47;5086651;28;20067;-68
2022/02/22 01:38:53;;;;;;;28.40;10.00;;;;;;;5.56;76.46;99815.41;5086073;28;20024;-68
2022/02/22 01:41:20;;;;;;;42.92;11.68;;;;;;;5.51;76.47;99819.03;5087109;28;20032;-68
2022/02/22 01:43:45;;;;;;;37.10;9.30;;;;;;;5.45;76.53;99821.84;5086821;28;20032;-68
2022/02/22 01:46:11;;;;;;;32.17;7.97;;;;;;;5.40;76.83;99821.09;5086525;28;20055;-68
2022/02/22 01:48:36;;;;;;;33.45;9.30;;;;;;;5.35;77.20;99814.25;5086320;28;20036;-68
2022/02/22 01:51:02;;;;;;;33.17;8.80;;;;;;;5.30;76.96;99810.91;5084512;28;20047;-68
2022/02/22 01:53:28;;;;;;;30.02;8.32;;;;;;;5.29;77.28;99818.75;5067707;28;20040;-68
2022/02/22 01:55:53;;;;;;;30.63;7.45;;;;;;;5.23;77.40;99818.94;5066597;28;20669;-68
2022/02/22 01:58:19;;;;;;;29.23;7.65;;;;;;;5.21;77.72;99821.59;5066801;28;20541;-68
2022/02/22 02:00:46;;;;;;;33.78;6.97;;;;;;;5.19;77.69;99812.06;5043444;28;20028;-68
2022/02/22 02:03:16;;;;;;;41.63;11.48;;;;;;;5.15;78.13;99819.16;5083663;28;20051;-68
2022/02/22 02:05:43;;;;;;;42.92;11.32;;;;;;;5.10;77.95;99823.66;5087196;28;20082;-68
2022/02/22 02:08:09;;;;;;;45.83;8.45;;;;;;;5.07;77.85;99823.69;5087163;28;20181;-69
2022/02/22 02:10:34;;;;;;;38.65;10.50;;;;;;;5.06;78.19;99819.38;5086967;28;20103;-68
2022/02/22 02:12:59;;;;;;;29.10;7.72;;;;;;;5.02;77.83;99815.13;5087009;28;20032;-68
2022/02/22 02:15:25;;;;;;;48.63;8.57;;;;;;;5.01;77.99;99816.91;5086116;28;20114;-68
2022/02/22 02:17:50;;;;;;;35.83;9.85;;;;;;;4.98;78.15;99824.81;5086362;28;20373;-68
2022/02/22 02:20:16;;;;;;;19.55;6.43;;;;;;;4.99;78.13;99817.81;5085534;28;20032;-68
2022/02/22 02:22:43;;;;;;;33.60;7.75;;;;;;;4.94;78.68;99818.78;5086252;28;20051;-68
2022/02/22 02:25:10;;;;;;;31.08;8.00;;;;;;;4.93;78.69;99819.72;5086193;28;20054;-68
2022/02/22 02:27:35;;;;;;;30.85;9.85;;;;;;;4.91;79.01;99816.28;5085489;28;20040;-68
2022/02/22 02:30:01;;;;;;;34.63;8.40;;;;;;;4.85;78.71;99812.94;5084836;28;20619;-68
2022/02/22 02:32:27;;;;;;;40.42;9.27;;;;;;;4.82;79.48;99815.66;5087206;28;20047;-69
2022/02/22 02:34:52;;;;;;;22.20;9.13;;;;;;;4.76;79.50;99811.44;5086485;28;20036;-69
2022/02/22 02:37:18;;;;;;;24.60;7.88;;;;;;;4.74;79.75;99819.31;5086636;28;20516;-69
2022/02/22 02:39:43;;;;;;;43.03;10.20;;;;;;;4.72;79.75;99825.47;5085977;28;20404;-69
2022/02/22 02:42:09;;;;;;;33.22;8.85;;;;;;;4.67;79.92;99825.56;5086287;28;20043;-69
2022/02/22 02:44:35;;;;;;;35.97;8.07;;;;;;;4.64;79.92;99835.25;5086226;28;20028;-68
2022/02/22 02:47:02;;;;;;;27.75;6.70;;;;;;;4.59;80.08;99829.28;5086138;28;20043;-68
2022/02/22 02:49:27;;;;;;;44.97;8.95;;;;;;;4.57;80.11;99831.91;5088085;28;20044;-68
2022/02/22 02:51:53;;;;;;;30.88;8.60;;;;;;;4.55;79.89;99838.91;5089617;28;20504;-68
2022/02/22 02:54:18;;;;;;;44.10;8.20;;;;;;;4.51;80.46;99827.72;5089620;28;20481;-68
2022/02/22 02:56:43;;;;;;;34.08;8.10;;;;;;;4.48;80.39;99829.56;5089392;28;20044;-68
2022/02/22 02:59:10;;;;;;;33.33;6.57;;;;;;;4.45;80.71;99829.59;5088596;28;20036;-68
2022/02/22 03:01:37;;;;;;;29.38;7.07;;;;;;;4.42;80.69;99825.31;5089729;28;20044;-68
2022/02/22 03:04:04;;;;;;;31.15;8.73;;;;;;;4.40;80.36;99828.84;5089430;28;20032;-68
2022/02/22 03:06:29;;;;;;;28.15;8.07;;;;;;;4.36;80.68;99835.91;5089284;28;20040;-68
2022/02/22 03:08:55;;;;;;;31.73;7.53;;;;;;;4.33;80.33;99835.94;5089677;28;20641;-68
2022/02/22 03:11:20;;;;;;;38.55;8.85;;;;;;;4.31;80.71;99840.38;5089429;28;20123;-68
2022/02/22 03:13:46;;;;;;;26.35;7.57;;;;;;;4.29;81.18;99844.75;5089984;28;20044;-68
2022/02/22 03:16:11;;;;;;;35.08;8.23;;;;;;;4.26;81.20;99848.31;5089102;28;20036;-68
2022/02/22 03:18:37;;;;;;;34.30;7.20;;;;;;;4.25;81.12;99859.63;5089845;28;20097;-68
2022/02/22 03:21:03;;;;;;;32.80;7.28;;;;;;;4.22;81.21;99864.91;5088139;28;20028;-68
2022/02/22 03:23:29;;;;;;;37.85;10.32;;;;;;;4.21;81.40;99850.16;5089613;28;20047;-68
2022/02/22 03:25:54;;;;;;;40.00;11.65;;;;;;;4.19;81.56;99848.47;5088746;28;20036;-68
2022/02/22 03:28:20;;;;;;;28.10;8.70;;;;;;;4.17;81.76;99853.72;5089113;28;20040;-68
2022/02/22 03:30:46;;;;;;;39.13;8.55;;;;;;;4.16;81.60;99856.34;5088385;28;20044;-68
2022/02/22 03:33:12;;;;;;;34.83;9.60;;;;;;;4.16;81.59;99858.97;5088441;28;20533;-68
2022/02/22 03:35:39;;;;;;;33.50;7.65;;;;;;;4.14;81.50;99852.94;5088968;28;20040;-69
2022/02/22 03:38:05;;;;;;;31.15;9.18;;;;;;;4.12;81.75;99859.94;5089256;28;20056;-68
2022/02/22 03:40:31;;;;;;;35.10;7.70;;;;;;;4.12;81.78;99859.94;5089300;28;20060;-68
2022/02/22 03:42:57;;;;;;;32.63;9.38;;;;;;;4.11;81.76;99856.47;5088930;28;20036;-68
2022/02/22 03:45:22;;;;;;;25.23;7.95;;;;;;;4.09;81.88;99856.50;5088233;28;20531;-68
2022/02/22 03:47:47;;;;;;;47.42;12.13;;;;;;;4.12;81.99;99865.16;5088399;28;20134;-68
2022/02/22 03:50:15;;;;;;;29.27;9.43;;;;;;;4.11;81.93;99866.91;5088068;28;20405;-68
2022/02/22 03:52:41;;;;;;;31.13;7.75;;;;;;;4.11;81.96;99868.63;5084844;28;20111;-68
2022/02/22 03:55:07;;;;;;;40.50;7.88;;;;;;;4.08;82.27;99867.81;5088572;28;20044;-68
2022/02/22 03:57:33;;;;;;;46.17;10.20;;;;;;;4.09;82.14;99869.53;5088695;28;20497;-69
2022/02/22 03:59:59;;;;;;;31.75;9.63;;;;;;;4.08;82.47;99859.97;5088117;28;20107;-69
2022/02/22 04:02:25;;;;;;;40.72;10.90;;;;;;;4.06;82.45;99856.56;5070474;28;20127;-69
2022/02/22 04:04:50;;;;;;;30.20;9.00;;;;;;;4.05;82.05;99860.06;5067895;28;20040;-69
2022/02/22 04:07:15;;;;;;;41.75;9.00;;;;;;;4.02;82.13;99862.75;5050496;28;20113;-69
2022/02/22 04:09:41;;;;;;;30.40;9.02;;;;;;;4.01;82.75;99855.81;5067850;28;20563;-69
2022/02/22 04:12:07;;;;;;;27.33;7.82;;;;;;;4.03;82.39;99858.38;5068241;28;20127;-69
2022/02/22 04:14:32;;;;;;;43.53;10.43;;;;;;;4.00;82.49;99867.13;5067562;28;20669;-69
2022/02/22 04:16:58;;;;;;;39.25;8.23;;;;;;;3.99;82.73;99856.75;5068252;28;20110;-68
2022/02/22 04:19:23;;;;;;;30.27;7.70;;;;;;;3.99;82.82;99868.03;5067320;28;20080;-69
2022/02/22 04:21:49;;;;;;;25.50;7.20;;;;;;;3.98;82.61;99866.28;5067689;28;20094;-69
2022/02/22 04:24:14;;;;;;;30.75;8.25;;;;;;;3.98;82.65;99861.06;5067756;28;20040;-69
2022/02/22 04:26:40;;;;;;;32.60;7.90;;;;;;;3.99;82.42;99865.41;5067535;28;20045;-69
2022/02/22 04:29:05;;;;;;;23.73;6.65;;;;;;;4.01;82.55;99861.03;5067443;28;20044;-69
2022/02/22 04:31:38;;;;;;;34.80;7.03;;;;;;;4.03;82.46;99874.88;5068247;28;20500;-69
2022/02/22 04:34:05;;;;;;;43.40;9.40;;;;;;;4.05;82.07;99875.72;5067687;28;20059;-69
2022/02/22 04:36:31;;;;;;;23.83;6.68;;;;;;;4.07;82.01;99871.31;5067832;28;20032;-69
2022/02/22 04:38:57;;;;;;;25.58;8.52;;;;;;;4.09;82.22;99884.34;5067517;28;20082;-69
2022/02/22 04:41:22;;;;;;;33.70;7.18;;;;;;;4.09;81.85;99887.81;5066575;28;20032;-69
2022/02/22 04:43:47;;;;;;;36.15;9.23;;;;;;;4.11;81.74;99889.50;5067186;28;20075;-69
2022/02/22 04:46:13;;;;;;;40.30;8.40;;;;;;;4.10;82.00;99886.03;5066665;28;20042;-68
2022/02/22 04:48:38;;;;;;;39.83;8.48;;;;;;;4.11;81.86;99884.28;5067584;28;20044;-68
2022/02/22 04:51:03;;;;;;;38.92;6.70;;;;;;;4.12;81.99;99891.25;5067103;28;20079;-69
2022/02/22 04:53:29;;;;;;;42.33;8.10;;;;;;;4.11;81.85;99894.72;5067789;28;20464;-69
2022/02/22 04:55:54;;;;;;;36.40;9.43;;;;;;;4.08;82.53;99893.91;5067063;28;20093;-69
2022/02/22 04:58:19;;;;;;;28.42;7.55;;;;;;;4.11;82.27;99889.50;5067188;28;20119;-69
2022/02/22 05:00:46;;;;;;;30.38;7.78;;;;;;;4.11;82.21;99892.13;5066218;28;20049;-69
2022/02/22 05:03:12;;;;;;;22.77;6.25;;;;;;;4.08;81.99;99893.91;5067112;28;20445;-69
2022/02/22 05:05:38;;;;;;;31.13;7.80;;;;;;;4.09;82.27;99894.78;5066999;28;20033;-69
2022/02/22 05:08:03;;;;;;;20.35;7.45;;;;;;;4.08;82.12;99891.28;5066751;28;20060;-69
2022/02/22 05:10:29;;;;;;;40.00;8.20;;;;;;;4.08;82.23;99891.28;5066528;28;20043;-69
2022/02/22 05:12:54;;;;;;;30.02;8.50;;;;;;;4.08;82.23;99903.47;5066397;28;20037;-69
2022/02/22 05:15:19;;;;;;;40.75;9.95;;;;;;;4.03;82.33;99902.72;5066728;28;20085;-68
2022/02/22 05:17:45;;;;;;;31.60;8.75;;;;;;;4.00;82.60;99911.47;5066649;28;20063;-69
2022/02/22 05:20:10;;;;;;;35.80;10.45;;;;;;;3.97;82.13;99908.94;5066953;28;20074;-68
2022/02/22 05:22:44;;;;;;;32.67;9.10;;;;;;;3.96;82.55;99909.78;5067028;28;20041;-69
2022/02/22 05:25:11;;;;;;;22.02;8.55;;;;;;;3.93;82.77;99902.03;5066349;28;20071;-68
2022/02/22 05:27:37;;;;;;;29.73;10.75;;;;;;;3.90;82.91;99906.47;5067190;28;20068;-70
2022/02/22 05:30:04;;;;;;;38.10;8.93;;;;;;;3.88;83.37;99916.94;5086132;28;20513;-69
2022/02/22 05:32:30;;;;;;;25.92;7.18;;;;;;;3.86;83.07;99916.09;5087439;28;20044;-69
2022/02/22 05:34:55;;;;;;;27.17;8.98;;;;;;;3.85;83.12;99914.38;5086535;28;20043;-69
2022/02/22 05:37:21;;;;;;;31.58;9.32;;;;;;;3.85;83.58;99919.59;5085860;28;20028;-69
2022/02/22 05:39:46;;;;;;;25.35;8.95;;;;;;;3.84;83.47;99925.72;5086475;28;20115;-69
2022/02/22 05:42:11;;;;;;;26.90;9.30;;;;;;;3.82;83.32;99928.34;5087097;28;20120;-69
2022/02/22 05:44:37;;;;;;;28.08;7.55;;;;;;;3.81;83.39;99928.38;5082963;28;20036;-69
2022/02/22 05:47:02;;;;;;;33.10;9.63;;;;;;;3.80;83.32;99918.84;5086275;28;20542;-68
2022/02/22 05:49:28;;;;;;;30.50;8.68;;;;;;;3.81;83.42;99928.38;5086463;28;20047;-69
2022/02/22 05:51:54;;;;;;;25.48;9.10;;;;;;;3.77;83.48;99924.97;5086220;28;20169;-70
2022/02/22 05:54:20;;;;;;;27.38;8.70;;;;;;;3.76;83.59;99922.38;5086591;28;20047;-69
2022/02/22 05:56:46;;;;;;;32.80;7.60;;;;;;;3.73;83.37;99925.06;5086273;28;20492;-69
2022/02/22 05:59:12;;;;;;;23.67;7.60;;;;;;;3.74;83.34;99929.38;5068377;28;20059;-68
2022/02/22 06:01:38;;;;;;;36.05;7.70;;;;;;;3.73;83.74;99936.34;5086469;28;20040;-69
2022/02/22 06:04:04;;;;;;;31.05;8.57;;;;;;;3.72;83.40;99942.44;5086721;28;20032;-68
2022/02/22 06:06:30;;;;;;;29.77;6.32;;;;;;;3.73;83.72;99943.31;5083182;28;20540;-68
2022/02/22 06:08:55;;;;;;;18.13;6.38;;;;;;;3.74;83.37;99945.00;5086237;28;20120;-68
2022/02/22 06:11:21;;;;;;;22.73;6.57;;;;;;;3.75;83.34;99952.81;5085721;28;20070;-68
2022/02/22 06:13:46;;;;;;;34.88;8.38;;;;;;;3.78;83.43;99951.91;5086388;28;20036;-69
2022/02/22 06:16:11;;;;;;;25.27;7.60;;;;;;;3.78;83.17;99951.91;5086186;28;20028;-69
2022/02/22 06:18:37;;;;;;;19.83;5.97;;;;;;;3.80;83.00;99955.34;5086605;28;20028;-69
2022/02/22 06:21:02;;;;;;;19.58;6.32;;;;;;;3.80;82.90;99953.59;5085732;28;20075;-68
2022/02/22 06:23:27;;;;;;;30.17;8.35;;;;;;;3.80;83.02;99955.34;5086827;28;20062;-68
2022/02/22 06:25:53;;;;;;;26.05;7.32;;;;;;;3.82;82.93;99951.81;5090294;28;20040;-69
2022/02/22 06:28:19;;;;;;;26.75;7.55;;;;;;;3.84;83.04;99951.78;5090523;28;20048;-69
2022/02/22 06:30:44;;;;;;;36.70;7.88;;;;;;;3.85;82.71;99953.50;5089617;28;20032;-69
2022/02/22 06:33:09;;;;;;;27.75;8.02;;;;;;;3.84;82.60;99957.88;5067923;28;20045;-69
2022/02/22 06:35:35;;;;;;;32.05;7.18;;;;;;;3.83;82.41;99968.31;5090607;28;20055;-68
2022/02/22 06:38:00;;;;;;;20.63;6.28;;;;;;;3.86;82.82;99968.25;5089532;28;20216;-68
2022/02/22 06:40:27;;;;;;;30.23;6.55;;;;;;;3.92;82.98;99965.53;5072254;28;20071;-68
2022/02/22 06:42:53;;;;;;;20.52;7.10;;;;;;;3.97;82.15;99971.53;5090418;28;20140;-69
2022/02/22 06:45:18;;;;;;;26.58;7.20;;;;;;;4.00;82.45;99968.00;5089666;28;20501;-69
2022/02/22 06:47:44;;;;;;;21.25;6.75;;;;;;;4.07;82.21;99974.81;5089554;28;20044;-69
2022/02/22 06:50:12;;;;;;;26.00;9.70;;;;;;;4.13;82.09;99966.00;5089067;28;20032;-69
2022/02/22 06:52:39;;;;;;;27.80;9.52;;;;;;;4.16;81.92;99972.03;5089931;28;20127;-68
2022/02/22 06:55:05;;;;;;;26.02;6.38;;;;;;;4.20;81.76;99973.66;5089318;28;20058;-69
2022/02/22 06:57:31;;;;;;;29.90;6.70;;;;;;;4.27;81.72;99984.84;5089999;28;20055;-69
2022/02/22 06:59:57;;;;;;;31.17;7.65;;;;;;;4.35;81.66;99977.72;5089917;28;20043;-69
2022/02/22 07:02:22;;;;;;;22.58;6.55;;;;;;;4.42;81.68;99981.91;5089430;28;20032;-68
2022/02/22 07:04:47;;;;;;;21.10;8.05;;;;;;;4.48;81.64;99978.34;5089484;28;20497;-69
2022/02/22 07:07:13;;;;;;;22.75;7.78;;;;;;;4.55;81.39;99979.06;5071216;28;20055;-69
2022/02/22 07:09:38;;;;;;;24.88;6.38;;;;;;;4.62;81.26;99983.25;5088845;28;20044;-69
2022/02/22 07:12:04;;;;;;;27.88;7.80;;;;;;;4.69;80.86;99977.00;5072231;28;20055;-69
2022/02/22 07:14:29;;;;;;;21.02;7.65;;;;;;;4.76;80.91;99980.34;5089462;28;20118;-69
2022/02/22 07:16:56;;;;;;;20.95;6.85;;;;;;;4.82;80.72;99981.03;5089879;28;20043;-68
2022/02/22 07:19:21;;;;;;;22.88;8.45;;;;;;;4.89;80.68;99977.41;5070874;28;20557;-68
2022/02/22 07:21:47;;;;;;;21.73;6.82;;;;;;;4.94;80.66;99975.53;5089765;28;20158;-69
2022/02/22 07:24:12;;;;;;;24.25;8.48;;;;;;;4.99;80.41;99978.06;5089381;28;20035;-70
2022/02/22 07:26:37;;;;;;;16.23;8.23;;;;;;;5.02;80.72;99985.84;5089106;28;20036;-69
2022/02/22 07:29:03;;;;;;;24.98;8.60;;;;;;;5.04;80.77;99983.16;5089261;28;20442;-69
2022/02/22 07:31:28;;;;;;;22.58;9.65;;;;;;;5.06;80.77;99984.00;5088702;28;20040;-69
2022/02/22 07:33:54;;;;;;;28.15;10.18;;;;;;;5.12;80.52;99981.25;5089219;28;20184;-69
2022/02/22 07:36:19;;;;;;;24.92;10.80;;;;;;;5.14;80.46;99977.72;5085737;28;20035;-69
2022/02/22 07:38:44;;;;;;;23.40;11.10;;;;;;;5.21;80.69;99983.63;5068532;28;20029;-69
2022/02/22 07:41:10;;;;;;;18.50;9.70;;;;;;;5.27;80.17;99982.66;5068762;28;20028;-69
2022/02/22 07:43:35;;;;;;;29.75;10.63;;;;;;;5.37;80.20;99966.69;5068879;28;20485;-69
2022/02/22 07:46:00;;;;;;;18.73;10.45;;;;;;;5.44;79.79;99977.84;5050441;28;20036;-69
2022/02/22 07:48:26;;;;;;;19.10;11.38;;;;;;;5.52;79.32;99969.81;5068429;28;20406;-69
2022/02/22 07:50:51;;;;;;;25.23;10.15;;;;;;;5.58;79.35;99983.56;5067841;28;20489;-69
2022/02/22 07:53:16;;;;;;;35.80;12.13;;;;;;;5.62;79.38;99981.75;5068599;28;20516;-69
2022/02/22 07:55:42;;;;;;;26.25;11.25;;;;;;;5.66;79.39;99972.06;5068852;28;20063;-69
2022/02/22 07:58:09;;;;;;;29.73;13.27;;;;;;;5.69;79.35;99980.69;5069402;28;20161;-67
2022/02/22 08:00:35;;;;;;;30.50;13.30;;;;;;;5.70;78.93;99971.94;5068312;28;20042;-68
2022/02/22 08:03:00;;;;;;;34.13;12.82;;;;;;;5.81;78.72;99975.13;5067934;28;20033;-68
2022/02/22 08:05:25;;;;;;;24.75;11.80;;;;;;;5.97;78.24;99969.50;5070459;28;20074;-68
2022/02/22 08:07:51;;;;;;;32.38;13.23;;;;;;;6.10;77.66;99970.03;5068259;28;20592;-68
2022/02/22 08:10:16;;;;;;;29.38;11.18;;;;;;;6.13;77.33;99965.59;5067722;28;20028;-68
2022/02/22 08:12:42;;;;;;;28.05;11.50;;;;;;;6.16;76.97;99964.63;5050223;28;20033;-68
2022/02/22 08:15:09;;;;;;;28.40;11.48;;;;;;;6.31;76.85;99965.97;5068001;28;20041;-69
2022/02/22 08:17:40;;;;;;;28.35;10.85;;;;;;;6.42;76.40;99953.41;5067291;28;20040;-69
2022/02/22 08:20:06;;;;;;;27.90;12.38;;;;;;;6.64;75.90;99951.84;5067465;28;20039;-69
2022/02/22 08:22:32;;;;;;;29.42;11.35;;;;;;;6.75;74.78;99950.69;5067901;28;20040;-69
2022/02/22 08:24:57;;;;;;;29.52;11.82;;;;;;;6.73;74.55;99944.63;5049787;28;20025;-70
2022/02/22 08:27:22;;;;;;;24.10;12.10;;;;;;;6.69;74.52;99938.59;5067488;28;20071;-68
2022/02/22 08:29:48;;;;;;;24.95;11.88;;;;;;;6.79;74.17;99933.94;5077004;28;20098;-69
2022/02/22 08:32:13;;;;;;;21.70;9.95;;;;;;;6.83;73.65;99931.19;5078865;28;20063;-68
2022/02/22 08:34:38;;;;;;;22.45;10.05;;;;;;;6.96;73.50;99925.53;5068972;28;20044;-70
2022/02/22 08:37:04;;;;;;;20.75;10.68;;;;;;;6.98;72.91;99914.09;5068729;28;20025;-70
2022/02/22 08:39:29;;;;;;;23.00;10.15;;;;;;;6.99;72.48;99912.34;5072892;28;20054;-69
2022/02/22 08:41:55;;;;;;;24.13;9.70;;;;;;;6.87;72.64;99918.84;5074389;28;20033;-67
2022/02/22 08:44:20;;;;;;;29.48;11.05;;;;;;;6.96;72.07;99921.16;5068247;28;20062;-69
2022/02/22 08:46:46;;;;;;;27.15;10.48;;;;;;;7.04;71.27;99918.31;5067769;28;20039;-68
2022/02/22 08:49:11;;;;;;;24.02;8.15;;;;;;;7.10;70.98;99905.84;5067638;28;20039;-69
2022/02/22 08:51:36;;;;;;;23.63;8.57;;;;;;;7.13;71.23;99911.91;5070436;28;20089;-68
2022/02/22 08:54:04;;;;;;;22.48;10.98;;;;;;;7.21;70.72;99912.50;5072683;28;20040;-68
2022/02/22 08:56:30;;;;;;;22.20;9.55;;;;;;;7.33;70.01;99909.44;5077432;28;20090;-69
2022/02/22 08:58:55;;;;;;;21.80;9.63;;;;;;;7.41;69.72;99903.94;5078522;28;20518;-68
2022/02/22 09:01:21;;;;;;;22.42;7.78;;;;;;;7.37;69.17;99891.88;5082469;28;20123;-68
2022/02/22 09:03:46;;;;;;;22.65;9.52;;;;;;;7.44;69.03;99893.38;5085825;28;20640;-68
2022/02/22 09:06:12;;;;;;;30.73;7.85;;;;;;;7.64;69.18;99904.00;5076672;28;20036;-68
2022/02/22 09:08:37;;;;;;;27.80;8.95;;;;;;;7.73;68.65;99894.97;5065268;28;20033;-68
2022/02/22 09:11:02;;;;;;;28.67;8.50;;;;;;;8.00;67.32;99894.84;5094853;28;20036;-68
2022/02/22 09:13:28;;;;;;;20.20;8.07;;;;;;;8.09;67.55;99886.66;5077464;28;20089;-68
2022/02/22 09:15:53;;;;;;;18.77;7.47;;;;;;;8.34;66.89;99884.81;5084561;28;20032;-68
2022/02/22 09:18:19;;;;;;;25.50;7.40;;;;;;;8.44;65.95;99892.34;5069790;28;20062;-68
2022/02/22 09:20:45;;;;;;;17.58;7.45;;;;;;;8.46;65.90;99882.66;5083238;28;20044;-69
2022/02/22 09:23:11;;;;;;;18.02;6.78;;;;;;;8.37;66.13;99883.84;5087285;28;20039;-68
2022/02/22 09:25:36;;;;;;;15.73;7.32;;;;;;;8.38;66.03;99891.66;5062761;28;20746;-67
2022/02/22 09:28:07;;;;;;;18.20;7.78;;;;;;;8.36;65.75;99895.25;5070832;28;20036;-68
2022/02/22 09:30:34;;;;;;;21.23;8.48;;;;;;;8.32;65.80;99885.78;5067922;28;20121;-68
2022/02/22 09:33:00;;;;;;;27.52;8.38;;;;;;;8.20;65.79;99883.63;5069803;28;20544;-67
2022/02/22 09:35:27;;;;;;;24.85;8.88;;;;;;;8.13;66.82;99880.38;5057564;28;20401;-67
2022/02/22 09:37:54;;;;;;;28.20;7.25;;;;;;;8.04;66.41;99888.59;5060651;28;20058;-68
2022/02/22 09:40:21;;;;;;;20.95;6.55;;;;;;;7.94;66.08;99872.31;5042659;28;20032;-69
2022/02/22 09:42:47;;;;;;;23.88;6.38;;;;;;;7.99;66.58;99872.16;5064193;28;20050;-68
2022/02/22 09:45:13;;;;;;;25.15;6.65;;;;;;;8.10;66.17;99864.75;5071252;28;20044;-68
2022/02/22 09:47:41;;;;;;;23.52;6.15;;;;;;;8.20;65.32;99873.97;5081447;28;20809;-70
2022/02/22 09:50:07;;;;;;;27.42;7.05;;;;;;;8.18;65.03;99873.19;5071805;28;20039;-68
2022/02/22 09:52:33;;;;;;;23.05;7.85;;;;;;;8.24;64.71;99845.81;5060336;28;20544;-68
2022/02/22 09:54:59;;;;;;;24.20;7.38;;;;;;;8.48;64.25;99855.41;5059919;28;20904;-68
2022/02/22 09:57:24;;;;;;;27.30;8.25;;;;;;;8.58;63.60;99826.97;5053797;28;20036;-69
2022/02/22 09:59:50;;;;;;;29.73;7.40;;;;;;;8.63;63.14;99835.53;5074462;28;20040;-69
2022/02/22 10:02:15;;;;;;;23.40;7.05;;;;;;;9.08;62.17;99839.84;5064220;28;20689;-69
2022/02/22 10:04:43;;;;;;;31.33;7.38;;;;;;;9.37;61.27;99837.72;5060633;28;20043;-68
2022/02/22 10:07:09;;;;;;;24.92;7.40;;;;;;;9.06;61.76;99830.28;5063889;28;20131;-68
2022/02/22 10:09:34;;;;;;;27.25;7.30;;;;;;;8.98;62.67;99817.44;5074387;28;20497;-68
2022/02/22 10:12:00;;;;;;;30.08;7.63;;;;;;;8.87;63.01;99814.44;5080638;28;20032;-67
2022/02/22 10:14:27;;;;;;;38.42;6.65;;;;;;;8.78;62.28;99819.13;5070221;28;20105;-69
2022/02/22 10:16:55;;;;;;;30.40;9.50;;;;;;;8.71;62.77;99812.44;5075899;28;20845;-68
2022/02/22 10:19:23;;;;;;;26.35;7.88;;;;;;;8.82;62.65;99812.84;5069535;28;22203;-69
2022/02/22 10:21:59;;;;;;;32.03;8.18;;;;;;;8.86;62.77;99815.34;5061794;28;20077;-68
2022/02/22 10:24:30;;;;;;;22.08;7.97;;;;;;;8.78;62.86;99818.28;5092222;28;20639;-68
2022/02/22 10:27:07;;;;;;;48.50;6.95;;;;;;;8.86;63.09;99820.59;5084265;28;20115;-68
2022/02/22 10:29:33;;;;;;;28.83;8.98;;;;;;;8.91;62.38;99821.25;5085959;28;20103;-70
2022/02/22 10:32:10;;;;;;;34.03;6.65;;;;;;;8.74;64.13;99819.34;5087481;28;20421;-69
2022/02/22 10:34:35;;;;;;;25.83;6.55;;;;;;;8.74;64.13;99822.81;5086987;28;20024;-69
2022/02/22 10:37:00;;;;;;;33.17;8.10;;;;;;;8.66;64.42;99824.91;5086636;28;20366;-68
2022/02/22 10:39:26;;;;;;;24.25;6.65;;;;;;;8.51;64.68;99829.00;5086732;28;20128;-68
2022/02/22 10:41:54;;;;;;;21.42;5.60;;;;;;;8.47;64.30;99821.31;5086071;28;20048;-69
2022/02/22 10:44:29;;;;;;;17.83;6.57;;;;;;;8.43;65.35;99849.47;5066983;28;20060;-69
2022/02/22 10:46:55;;;;;;;34.67;7.00;;;;;;;8.33;65.55;99840.22;5066581;28;20033;-70
2022/02/22 10:49:23;;;;;;;38.58;7.07;;;;;;;8.34;65.07;99837.53;5066196;28;20068;-69
2022/02/22 10:51:51;;;;;;;27.30;7.88;;;;;;;8.34;65.75;99837.53;5066228;28;20032;-68
2022/02/22 10:54:19;;;;;;;24.40;6.95;;;;;;;8.41;65.45;99853.06;5066791;28;20033;-69
2022/02/22 10:56:45;;;;;;;30.98;7.30;;;;;;;8.40;64.79;99854.84;5067235;28;20044;-69
2022/02/22 10:59:10;;;;;;;25.52;6.72;;;;;;;8.35;64.97;99844.50;5085845;28;20389;-70
2022/02/22 11:01:36;;;;;;;26.52;6.72;;;;;;;8.35;65.39;99843.66;5087047;28;20032;-71
2022/02/22 11:04:02;;;;;;;23.67;6.88;;;;;;;8.42;65.44;99849.53;5087501;28;20532;-69
2022/02/22 11:06:27;;;;;;;23.30;6.75;;;;;;;8.38;65.52;99843.50;5086718;28;20032;-69
2022/02/22 11:08:55;;;;;;;13.73;6.35;;;;;;;8.40;65.11;99825.09;5086087;28;20024;-69
2022/02/22 11:11:25;;;;;;;18.67;6.70;;;;;;;8.49;65.29;99814.22;5087840;28;20036;-68
2022/02/22 11:14:06;;;;;;;26.52;7.95;;;;;;;8.71;64.55;99801.94;5090290;28;20043;-69
2022/02/22 11:16:40;;;;;;;23.83;5.72;;;;;;;8.80;64.04;99793.66;5089259;28;20126;-69
2022/02/22 11:19:14;;;;;;;17.83;6.20;;;;;;;8.78;64.83;99777.06;5090253;28;20024;-69
2022/02/22 11:21:39;;;;;;;22.83;6.53;;;;;;;8.77;64.12;99788.53;5089959;28;20028;-69
2022/02/22 11:24:09;;;;;;;18.75;7.45;;;;;;;8.72;64.68;99785.22;5089882;28;20033;-69
2022/02/22 11:26:57;;;;;;;19.73;6.93;;;;;;;8.65;64.89;99785.56;5089670;28;20032;-69